sensor_id;sensor_type;location;lat;lon;timestamp;P1;durP1;ratioP1;P2;durP2;ratioP2
31652;SDS011;18261;53.648;9.910;2023-02-28T00:00:35;17.10;;;6.53;;
31652;SDS011;18261;53.648;9.910;2023-02-28T00:03:01;17.55;;;7.10;;
31652;SDS011;18261;53.648;9.910;2023-02-28T00:05:28;18.38;;;6.97;;
31652;SDS011;18261;53.648;9.910;2023-02-28T00:07:54;16.73;;;6.65;;
31652;SDS011;18261;53.648;9.910;2023-02-28T00:10:21;15.90;;;7.03;;
31652;SDS011;18261;53.648;9.910;2023-02-28T00:12:48;21.70;;;7.82;;
31652;SDS011;18261;53.648;9.910;2023-02-28T00:15:15;16.90;;;6.60;;
31652;SDS011;18261;53.648;9.910;2023-02-28T00:17:41;23.50;;;6.30;;
31652;SDS011;18261;53.648;9.910;2023-02-28T00:20:07;21.17;;;7.95;;
31652;SDS011;18261;53.648;9.910;2023-02-28T00:22:35;19.85;;;7.68;;
31652;SDS011;18261;53.648;9.910;2023-02-28T00:25:01;15.45;;;7.00;;
31652;SDS011;18261;53.648;9.910;2023-02-28T00:27:27;22.17;;;7.20;;
31652;SDS011;18261;53.648;9.910;2023-02-28T00:29:53;15.18;;;6.93;;
31652;SDS011;18261;53.648;9.910;2023-02-28T00:32:19;18.85;;;6.65;;
31652;SDS011;18261;53.648;9.910;2023-02-28T00:34:45;18.42;;;6.28;;
31652;SDS011;18261;53.648;9.910;2023-02-28T00:37:11;19.58;;;7.72;;
31652;SDS011;18261;53.648;9.910;2023-02-28T00:39:38;16.00;;;6.60;;
31652;SDS011;18261;53.648;9.910;2023-02-28T00:42:05;15.02;;;6.93;;
31652;SDS011;18261;53.648;9.910;2023-02-28T00:44:31;17.13;;;6.20;;
31652;SDS011;18261;53.648;9.910;2023-02-28T00:46:57;17.70;;;6.25;;
31652;SDS011;18261;53.648;9.910;2023-02-28T00:49:24;19.27;;;6.22;;
31652;SDS011;18261;53.648;9.910;2023-02-28T00:51:50;14.38;;;6.10;;
31652;SDS011;18261;53.648;9.910;2023-02-28T00:54:16;15.50;;;6.35;;
31652;SDS011;18261;53.648;9.910;2023-02-28T00:56:42;15.52;;;6.18;;
31652;SDS011;18261;53.648;9.910;2023-02-28T00:59:08;18.92;;;6.28;;
31652;SDS011;18261;53.648;9.910;2023-02-28T01:01:34;16.05;;;6.18;;
31652;SDS011;18261;53.648;9.910;2023-02-28T01:04:00;19.98;;;6.50;;
31652;SDS011;18261;53.648;9.910;2023-02-28T01:06:26;15.30;;;6.10;;
31652;SDS011;18261;53.648;9.910;2023-02-28T01:08:52;18.20;;;6.28;;
31652;SDS011;18261;53.648;9.910;2023-02-28T01:11:18;15.65;;;6.60;;
31652;SDS011;18261;53.648;9.910;2023-02-28T01:13:45;15.23;;;6.07;;
31652;SDS011;18261;53.648;9.910;2023-02-28T01:16:11;23.27;;;6.45;;
31652;SDS011;18261;53.648;9.910;2023-02-28T01:18:39;25.00;;;6.25;;
31652;SDS011;18261;53.648;9.910;2023-02-28T01:21:06;16.92;;;6.28;;
31652;SDS011;18261;53.648;9.910;2023-02-28T01:23:32;17.02;;;6.72;;
31652;SDS011;18261;53.648;9.910;2023-02-28T01:26:03;15.38;;;5.80;;
31652;SDS011;18261;53.648;9.910;2023-02-28T01:28:29;15.52;;;6.10;;
31652;SDS011;18261;53.648;9.910;2023-02-28T01:30:55;18.73;;;6.15;;
31652;SDS011;18261;53.648;9.910;2023-02-28T01:33:21;16.95;;;6.25;;
31652;SDS011;18261;53.648;9.910;2023-02-28T01:35:47;15.70;;;6.55;;
31652;SDS011;18261;53.648;9.910;2023-02-28T01:38:13;17.65;;;6.15;;
31652;SDS011;18261;53.648;9.910;2023-02-28T01:40:39;14.30;;;6.07;;
31652;SDS011;18261;53.648;9.910;2023-02-28T01:43:16;15.93;;;5.90;;
31652;SDS011;18261;53.648;9.910;2023-02-28T01:45:44;14.45;;;5.63;;
31652;SDS011;18261;53.648;9.910;2023-02-28T01:48:10;15.35;;;6.15;;
31652;SDS011;18261;53.648;9.910;2023-02-28T01:50:38;13.75;;;5.82;;
31652;SDS011;18261;53.648;9.910;2023-02-28T01:53:06;11.80;;;5.70;;
31652;SDS011;18261;53.648;9.910;2023-02-28T01:55:32;17.00;;;6.07;;
31652;SDS011;18261;53.648;9.910;2023-02-28T01:58:00;17.73;;;6.13;;
31652;SDS011;18261;53.648;9.910;2023-02-28T02:00:28;16.25;;;5.50;;
31652;SDS011;18261;53.648;9.910;2023-02-28T02:02:55;21.58;;;5.78;;
31652;SDS011;18261;53.648;9.910;2023-02-28T02:05:23;22.25;;;6.03;;
31652;SDS011;18261;53.648;9.910;2023-02-28T02:07:51;16.60;;;5.72;;
31652;SDS011;18261;53.648;9.910;2023-02-28T02:10:24;12.77;;;5.40;;
31652;SDS011;18261;53.648;9.910;2023-02-28T02:12:58;15.18;;;5.28;;
31652;SDS011;18261;53.648;9.910;2023-02-28T02:15:31;16.98;;;5.90;;
31652;SDS011;18261;53.648;9.910;2023-02-28T02:20:56;16.45;;;5.60;;
31652;SDS011;18261;53.648;9.910;2023-02-28T02:29:28;20.38;;;5.45;;
31652;SDS011;18261;53.648;9.910;2023-02-28T02:36:57;14.00;;;4.60;;
31652;SDS011;18261;53.648;9.910;2023-02-28T02:42:14;15.90;;;3.78;;
31652;SDS011;18261;53.648;9.910;2023-02-28T02:45:01;16.42;;;4.32;;
31652;SDS011;18261;53.648;9.910;2023-02-28T02:47:29;14.70;;;4.55;;
31652;SDS011;18261;53.648;9.910;2023-02-28T02:49:57;14.77;;;4.82;;
31652;SDS011;18261;53.648;9.910;2023-02-28T02:52:25;15.55;;;3.95;;
31652;SDS011;18261;53.648;9.910;2023-02-28T02:54:54;13.40;;;4.35;;
31652;SDS011;18261;53.648;9.910;2023-02-28T02:57:23;22.67;;;4.75;;
31652;SDS011;18261;53.648;9.910;2023-02-28T02:59:50;16.52;;;4.65;;
31652;SDS011;18261;53.648;9.910;2023-02-28T03:02:18;15.90;;;4.32;;
31652;SDS011;18261;53.648;9.910;2023-02-28T03:04:48;14.63;;;4.85;;
31652;SDS011;18261;53.648;9.910;2023-02-28T03:07:16;15.07;;;4.25;;
31652;SDS011;18261;53.648;9.910;2023-02-28T03:09:49;11.32;;;4.03;;
31652;SDS011;18261;53.648;9.910;2023-02-28T03:12:16;17.60;;;4.60;;
31652;SDS011;18261;53.648;9.910;2023-02-28T03:14:46;14.50;;;4.95;;
31652;SDS011;18261;53.648;9.910;2023-02-28T03:27:29;11.77;;;4.60;;
31652;SDS011;18261;53.648;9.910;2023-02-28T03:32:50;9.70;;;4.03;;
31652;SDS011;18261;53.648;9.910;2023-02-28T03:35:20;16.27;;;5.18;;
31652;SDS011;18261;53.648;9.910;2023-02-28T03:37:47;20.13;;;4.60;;
31652;SDS011;18261;53.648;9.910;2023-02-28T03:40:17;14.60;;;4.95;;
31652;SDS011;18261;53.648;9.910;2023-02-28T03:42:45;18.13;;;5.40;;
31652;SDS011;18261;53.648;9.910;2023-02-28T03:45:15;15.85;;;4.47;;
31652;SDS011;18261;53.648;9.910;2023-02-28T03:47:55;12.98;;;5.05;;
31652;SDS011;18261;53.648;9.910;2023-02-28T03:50:45;17.05;;;4.70;;
31652;SDS011;18261;53.648;9.910;2023-02-28T03:53:20;17.15;;;5.05;;
31652;SDS011;18261;53.648;9.910;2023-02-28T03:55:48;17.92;;;5.55;;
31652;SDS011;18261;53.648;9.910;2023-02-28T03:58:30;17.40;;;6.40;;
31652;SDS011;18261;53.648;9.910;2023-02-28T04:01:03;14.95;;;5.72;;
31652;SDS011;18261;53.648;9.910;2023-02-28T04:03:33;17.17;;;5.35;;
31652;SDS011;18261;53.648;9.910;2023-02-28T04:05:59;15.50;;;5.47;;
31652;SDS011;18261;53.648;9.910;2023-02-28T04:08:25;17.67;;;6.30;;
31652;SDS011;18261;53.648;9.910;2023-02-28T04:10:54;19.42;;;7.10;;
31652;SDS011;18261;53.648;9.910;2023-02-28T04:13:21;21.83;;;7.03;;
31652;SDS011;18261;53.648;9.910;2023-02-28T04:15:47;34.90;;;9.48;;
31652;SDS011;18261;53.648;9.910;2023-02-28T04:18:13;28.20;;;10.23;;
31652;SDS011;18261;53.648;9.910;2023-02-28T04:20:39;16.45;;;6.45;;
31652;SDS011;18261;53.648;9.910;2023-02-28T04:23:05;18.13;;;6.97;;
31652;SDS011;18261;53.648;9.910;2023-02-28T04:25:31;18.80;;;7.45;;
31652;SDS011;18261;53.648;9.910;2023-02-28T04:27:57;17.35;;;6.80;;
31652;SDS011;18261;53.648;9.910;2023-02-28T04:30:23;24.23;;;7.38;;
31652;SDS011;18261;53.648;9.910;2023-02-28T04:32:49;20.30;;;6.63;;
31652;SDS011;18261;53.648;9.910;2023-02-28T04:35:15;22.50;;;7.15;;
31652;SDS011;18261;53.648;9.910;2023-02-28T04:37:41;21.15;;;7.65;;
31652;SDS011;18261;53.648;9.910;2023-02-28T04:40:07;28.05;;;7.15;;
31652;SDS011;18261;53.648;9.910;2023-02-28T04:42:33;20.92;;;7.43;;
31652;SDS011;18261;53.648;9.910;2023-02-28T04:45:03;21.60;;;7.10;;
31652;SDS011;18261;53.648;9.910;2023-02-28T04:47:30;24.65;;;6.32;;
31652;SDS011;18261;53.648;9.910;2023-02-28T04:49:56;22.10;;;7.72;;
31652;SDS011;18261;53.648;9.910;2023-02-28T04:52:22;22.73;;;7.60;;
31652;SDS011;18261;53.648;9.910;2023-02-28T04:54:48;17.15;;;6.50;;
31652;SDS011;18261;53.648;9.910;2023-02-28T04:57:14;15.43;;;6.47;;
31652;SDS011;18261;53.648;9.910;2023-02-28T04:59:40;20.17;;;6.53;;
31652;SDS011;18261;53.648;9.910;2023-02-28T05:02:06;15.27;;;6.05;;
31652;SDS011;18261;53.648;9.910;2023-02-28T05:04:35;22.50;;;6.63;;
31652;SDS011;18261;53.648;9.910;2023-02-28T05:07:01;19.83;;;7.03;;
31652;SDS011;18261;53.648;9.910;2023-02-28T05:09:28;19.52;;;7.53;;
31652;SDS011;18261;53.648;9.910;2023-02-28T05:11:54;23.30;;;7.93;;
31652;SDS011;18261;53.648;9.910;2023-02-28T05:14:20;31.15;;;11.77;;
31652;SDS011;18261;53.648;9.910;2023-02-28T05:16:46;17.85;;;6.85;;
31652;SDS011;18261;53.648;9.910;2023-02-28T05:19:12;18.02;;;6.70;;
31652;SDS011;18261;53.648;9.910;2023-02-28T05:21:39;21.30;;;7.80;;
31652;SDS011;18261;53.648;9.910;2023-02-28T05:24:06;23.52;;;7.50;;
31652;SDS011;18261;53.648;9.910;2023-02-28T05:26:36;20.80;;;6.88;;
31652;SDS011;18261;53.648;9.910;2023-02-28T05:29:02;19.42;;;7.05;;
31652;SDS011;18261;53.648;9.910;2023-02-28T05:31:30;21.92;;;6.72;;
31652;SDS011;18261;53.648;9.910;2023-02-28T05:33:56;17.88;;;6.90;;
31652;SDS011;18261;53.648;9.910;2023-02-28T05:36:22;17.95;;;6.03;;
31652;SDS011;18261;53.648;9.910;2023-02-28T05:38:49;20.15;;;6.43;;
31652;SDS011;18261;53.648;9.910;2023-02-28T05:41:15;17.88;;;6.63;;
31652;SDS011;18261;53.648;9.910;2023-02-28T05:43:41;15.38;;;5.82;;
31652;SDS011;18261;53.648;9.910;2023-02-28T05:46:08;18.52;;;6.43;;
31652;SDS011;18261;53.648;9.910;2023-02-28T05:48:36;17.55;;;5.68;;
31652;SDS011;18261;53.648;9.910;2023-02-28T05:51:02;19.63;;;8.85;;
31652;SDS011;18261;53.648;9.910;2023-02-28T05:53:29;27.20;;;10.70;;
31652;SDS011;18261;53.648;9.910;2023-02-28T05:55:55;26.65;;;8.70;;
31652;SDS011;18261;53.648;9.910;2023-02-28T05:58:21;24.08;;;7.53;;
31652;SDS011;18261;53.648;9.910;2023-02-28T06:00:47;22.55;;;7.55;;
31652;SDS011;18261;53.648;9.910;2023-02-28T06:03:14;22.35;;;7.25;;
31652;SDS011;18261;53.648;9.910;2023-02-28T06:05:40;24.48;;;6.97;;
31652;SDS011;18261;53.648;9.910;2023-02-28T06:08:06;21.58;;;7.65;;
31652;SDS011;18261;53.648;9.910;2023-02-28T06:10:32;24.10;;;6.93;;
31652;SDS011;18261;53.648;9.910;2023-02-28T06:13:02;19.70;;;6.82;;
31652;SDS011;18261;53.648;9.910;2023-02-28T06:15:28;22.05;;;7.20;;
31652;SDS011;18261;53.648;9.910;2023-02-28T06:17:54;29.55;;;7.85;;
31652;SDS011;18261;53.648;9.910;2023-02-28T06:20:24;35.90;;;13.88;;
31652;SDS011;18261;53.648;9.910;2023-02-28T06:22:54;29.15;;;10.52;;
31652;SDS011;18261;53.648;9.910;2023-02-28T06:25:21;22.90;;;7.47;;
31652;SDS011;18261;53.648;9.910;2023-02-28T06:27:47;27.73;;;8.55;;
31652;SDS011;18261;53.648;9.910;2023-02-28T06:30:13;37.20;;;12.85;;
31652;SDS011;18261;53.648;9.910;2023-02-28T06:32:39;19.55;;;7.82;;
31652;SDS011;18261;53.648;9.910;2023-02-28T06:35:05;23.10;;;7.72;;
31652;SDS011;18261;53.648;9.910;2023-02-28T06:37:32;21.50;;;7.65;;
31652;SDS011;18261;53.648;9.910;2023-02-28T06:39:58;23.48;;;8.25;;
31652;SDS011;18261;53.648;9.910;2023-02-28T06:42:24;25.60;;;8.95;;
31652;SDS011;18261;53.648;9.910;2023-02-28T06:44:54;28.80;;;10.25;;
31652;SDS011;18261;53.648;9.910;2023-02-28T06:47:20;22.45;;;9.35;;
31652;SDS011;18261;53.648;9.910;2023-02-28T06:49:46;32.15;;;10.23;;
31652;SDS011;18261;53.648;9.910;2023-02-28T06:52:12;28.10;;;10.60;;
31652;SDS011;18261;53.648;9.910;2023-02-28T06:54:38;26.30;;;9.23;;
31652;SDS011;18261;53.648;9.910;2023-02-28T06:57:04;22.50;;;9.13;;
31652;SDS011;18261;53.648;9.910;2023-02-28T06:59:30;24.92;;;9.20;;
31652;SDS011;18261;53.648;9.910;2023-02-28T07:01:56;32.58;;;9.48;;
31652;SDS011;18261;53.648;9.910;2023-02-28T07:04:22;24.17;;;9.23;;
31652;SDS011;18261;53.648;9.910;2023-02-28T07:06:48;23.45;;;9.18;;
31652;SDS011;18261;53.648;9.910;2023-02-28T07:09:14;27.25;;;8.90;;
31652;SDS011;18261;53.648;9.910;2023-02-28T07:11:40;31.42;;;11.10;;
31652;SDS011;18261;53.648;9.910;2023-02-28T07:14:08;28.08;;;10.43;;
31652;SDS011;18261;53.648;9.910;2023-02-28T07:16:34;26.90;;;10.30;;
31652;SDS011;18261;53.648;9.910;2023-02-28T07:19:00;30.05;;;11.48;;
31652;SDS011;18261;53.648;9.910;2023-02-28T07:21:26;31.88;;;11.75;;
31652;SDS011;18261;53.648;9.910;2023-02-28T07:23:52;40.00;;;15.30;;
31652;SDS011;18261;53.648;9.910;2023-02-28T07:26:19;36.03;;;13.43;;
31652;SDS011;18261;53.648;9.910;2023-02-28T07:28:46;33.63;;;11.50;;
31652;SDS011;18261;53.648;9.910;2023-02-28T07:31:12;42.47;;;15.38;;
31652;SDS011;18261;53.648;9.910;2023-02-28T07:33:39;41.08;;;12.98;;
31652;SDS011;18261;53.648;9.910;2023-02-28T07:36:15;44.53;;;12.68;;
31652;SDS011;18261;53.648;9.910;2023-02-28T07:38:42;45.28;;;11.38;;
31652;SDS011;18261;53.648;9.910;2023-02-28T07:41:09;32.55;;;10.48;;
31652;SDS011;18261;53.648;9.910;2023-02-28T07:43:35;35.40;;;10.63;;
31652;SDS011;18261;53.648;9.910;2023-02-28T07:46:02;32.88;;;10.73;;
31652;SDS011;18261;53.648;9.910;2023-02-28T07:48:29;24.95;;;9.18;;
31652;SDS011;18261;53.648;9.910;2023-02-28T07:50:55;40.58;;;9.27;;
31652;SDS011;18261;53.648;9.910;2023-02-28T07:53:21;28.95;;;9.20;;
31652;SDS011;18261;53.648;9.910;2023-02-28T07:55:47;28.20;;;9.77;;
31652;SDS011;18261;53.648;9.910;2023-02-28T07:58:13;23.45;;;9.25;;
31652;SDS011;18261;53.648;9.910;2023-02-28T08:00:39;20.88;;;8.18;;
31652;SDS011;18261;53.648;9.910;2023-02-28T08:03:05;29.98;;;8.45;;
31652;SDS011;18261;53.648;9.910;2023-02-28T08:05:31;19.67;;;8.13;;
31652;SDS011;18261;53.648;9.910;2023-02-28T08:07:57;13.05;;;5.78;;
31652;SDS011;18261;53.648;9.910;2023-02-28T08:10:23;13.90;;;5.43;;
31652;SDS011;18261;53.648;9.910;2023-02-28T08:12:49;13.63;;;4.88;;
31652;SDS011;18261;53.648;9.910;2023-02-28T08:15:15;11.73;;;5.10;;
31652;SDS011;18261;53.648;9.910;2023-02-28T08:17:41;15.93;;;5.22;;
31652;SDS011;18261;53.648;9.910;2023-02-28T08:20:07;11.93;;;5.43;;
31652;SDS011;18261;53.648;9.910;2023-02-28T08:22:35;17.05;;;6.25;;
31652;SDS011;18261;53.648;9.910;2023-02-28T08:25:01;15.70;;;5.50;;
31652;SDS011;18261;53.648;9.910;2023-02-28T08:27:27;18.30;;;6.28;;
31652;SDS011;18261;53.648;9.910;2023-02-28T08:29:53;23.15;;;6.53;;
31652;SDS011;18261;53.648;9.910;2023-02-28T08:32:19;27.55;;;7.97;;
31652;SDS011;18261;53.648;9.910;2023-02-28T08:34:45;26.88;;;7.55;;
31652;SDS011;18261;53.648;9.910;2023-02-28T08:37:11;21.33;;;6.40;;
31652;SDS011;18261;53.648;9.910;2023-02-28T08:39:37;19.95;;;6.45;;
31652;SDS011;18261;53.648;9.910;2023-02-28T08:42:03;16.45;;;5.75;;
31652;SDS011;18261;53.648;9.910;2023-02-28T08:44:29;13.55;;;4.65;;
31652;SDS011;18261;53.648;9.910;2023-02-28T08:46:56;12.20;;;4.25;;
31652;SDS011;18261;53.648;9.910;2023-02-28T08:49:22;11.55;;;4.22;;
31652;SDS011;18261;53.648;9.910;2023-02-28T08:51:48;10.10;;;3.55;;
31652;SDS011;18261;53.648;9.910;2023-02-28T08:54:14;8.18;;;3.20;;
31652;SDS011;18261;53.648;9.910;2023-02-28T08:56:44;14.40;;;3.55;;
31652;SDS011;18261;53.648;9.910;2023-02-28T08:59:11;8.38;;;3.10;;
31652;SDS011;18261;53.648;9.910;2023-02-28T09:01:37;10.65;;;3.25;;
31652;SDS011;18261;53.648;9.910;2023-02-28T09:04:03;12.00;;;4.57;;
31652;SDS011;18261;53.648;9.910;2023-02-28T09:06:29;4.43;;;2.22;;
31652;SDS011;18261;53.648;9.910;2023-02-28T09:08:58;3.38;;;1.70;;
31652;SDS011;18261;53.648;9.910;2023-02-28T09:11:26;5.47;;;2.10;;
31652;SDS011;18261;53.648;9.910;2023-02-28T09:13:52;5.03;;;1.67;;
31652;SDS011;18261;53.648;9.910;2023-02-28T09:16:18;8.52;;;2.25;;
31652;SDS011;18261;53.648;9.910;2023-02-28T09:18:44;6.65;;;2.35;;
31652;SDS011;18261;53.648;9.910;2023-02-28T09:21:12;6.13;;;2.28;;
31652;SDS011;18261;53.648;9.910;2023-02-28T09:23:41;7.15;;;2.05;;
31652;SDS011;18261;53.648;9.910;2023-02-28T09:26:08;6.72;;;1.88;;
31652;SDS011;18261;53.648;9.910;2023-02-28T09:28:37;6.53;;;1.75;;
31652;SDS011;18261;53.648;9.910;2023-02-28T09:31:03;6.28;;;1.73;;
31652;SDS011;18261;53.648;9.910;2023-02-28T09:33:29;5.32;;;1.77;;
31652;SDS011;18261;53.648;9.910;2023-02-28T09:35:59;3.70;;;1.58;;
31652;SDS011;18261;53.648;9.910;2023-02-28T09:38:26;2.40;;;1.50;;
31652;SDS011;18261;53.648;9.910;2023-02-28T09:40:53;6.50;;;2.20;;
31652;SDS011;18261;53.648;9.910;2023-02-28T09:43:22;4.55;;;2.55;;
31652;SDS011;18261;53.648;9.910;2023-02-28T09:45:51;8.60;;;1.55;;
31652;SDS011;18261;53.648;9.910;2023-02-28T09:48:24;6.28;;;1.80;;
31652;SDS011;18261;53.648;9.910;2023-02-28T09:50:52;9.13;;;2.50;;
31652;SDS011;18261;53.648;9.910;2023-02-28T09:55:51;6.63;;;2.40;;
31652;SDS011;18261;53.648;9.910;2023-02-28T10:00:55;6.20;;;2.47;;
31652;SDS011;18261;53.648;9.910;2023-02-28T10:08:31;4.95;;;1.92;;
31652;SDS011;18261;53.648;9.910;2023-02-28T10:11:03;6.18;;;1.90;;
31652;SDS011;18261;53.648;9.910;2023-02-28T10:13:33;9.02;;;2.58;;
31652;SDS011;18261;53.648;9.910;2023-02-28T10:16:06;5.68;;;2.40;;
31652;SDS011;18261;53.648;9.910;2023-02-28T10:18:38;5.57;;;2.35;;
31652;SDS011;18261;53.648;9.910;2023-02-28T10:21:05;6.85;;;2.55;;
31652;SDS011;18261;53.648;9.910;2023-02-28T10:23:33;8.85;;;2.80;;
31652;SDS011;18261;53.648;9.910;2023-02-28T10:26:01;6.65;;;2.40;;
31652;SDS011;18261;53.648;9.910;2023-02-28T10:28:29;5.78;;;2.20;;
31652;SDS011;18261;53.648;9.910;2023-02-28T10:30:56;17.73;;;5.30;;
31652;SDS011;18261;53.648;9.910;2023-02-28T10:33:24;9.70;;;2.47;;
31652;SDS011;18261;53.648;9.910;2023-02-28T10:35:51;4.88;;;1.90;;
31652;SDS011;18261;53.648;9.910;2023-02-28T10:38:18;4.82;;;1.80;;
31652;SDS011;18261;53.648;9.910;2023-02-28T10:40:45;6.88;;;2.03;;
31652;SDS011;18261;53.648;9.910;2023-02-28T10:45:52;11.57;;;4.28;;
31652;SDS011;18261;53.648;9.910;2023-02-28T10:58:28;7.15;;;2.25;;
31652;SDS011;18261;53.648;9.910;2023-02-28T11:00:55;7.00;;;1.73;;
31652;SDS011;18261;53.648;9.910;2023-02-28T11:05:50;8.88;;;2.15;;
31652;SDS011;18261;53.648;9.910;2023-02-28T11:08:16;3.88;;;1.92;;
31652;SDS011;18261;53.648;9.910;2023-02-28T11:10:47;5.60;;;1.88;;
31652;SDS011;18261;53.648;9.910;2023-02-28T11:13:24;7.05;;;2.45;;
31652;SDS011;18261;53.648;9.910;2023-02-28T11:15:55;4.40;;;2.03;;
31652;SDS011;18261;53.648;9.910;2023-02-28T11:18:23;5.80;;;2.33;;
31652;SDS011;18261;53.648;9.910;2023-02-28T11:20:50;5.45;;;1.85;;
31652;SDS011;18261;53.648;9.910;2023-02-28T11:23:17;4.50;;;1.70;;
31652;SDS011;18261;53.648;9.910;2023-02-28T11:25:49;4.80;;;1.80;;
31652;SDS011;18261;53.648;9.910;2023-02-28T11:28:29;11.10;;;4.00;;
31652;SDS011;18261;53.648;9.910;2023-02-28T11:31:15;42.23;;;18.93;;
31652;SDS011;18261;53.648;9.910;2023-02-28T11:36:19;20.13;;;8.07;;
31652;SDS011;18261;53.648;9.910;2023-02-28T11:38:46;8.43;;;3.63;;
31652;SDS011;18261;53.648;9.910;2023-02-28T11:49:00;6.38;;;2.75;;
31652;SDS011;18261;53.648;9.910;2023-02-28T11:51:35;7.07;;;2.72;;
31652;SDS011;18261;53.648;9.910;2023-02-28T11:56:36;4.40;;;2.10;;
31652;SDS011;18261;53.648;9.910;2023-02-28T11:59:13;7.07;;;1.67;;
31652;SDS011;18261;53.648;9.910;2023-02-28T12:04:17;7.40;;;2.27;;
31652;SDS011;18261;53.648;9.910;2023-02-28T12:07:09;4.72;;;1.88;;
31652;SDS011;18261;53.648;9.910;2023-02-28T12:09:49;4.47;;;2.13;;
31652;SDS011;18261;53.648;9.910;2023-02-28T12:12:33;7.13;;;1.63;;
31652;SDS011;18261;53.648;9.910;2023-02-28T12:23:17;5.40;;;2.00;;
31652;SDS011;18261;53.648;9.910;2023-02-28T12:28:13;7.60;;;1.88;;
31652;SDS011;18261;53.648;9.910;2023-02-28T12:31:00;6.95;;;1.80;;
31652;SDS011;18261;53.648;9.910;2023-02-28T12:33:30;4.78;;;1.90;;
31652;SDS011;18261;53.648;9.910;2023-02-28T12:35:59;3.53;;;2.17;;
31652;SDS011;18261;53.648;9.910;2023-02-28T12:38:26;5.50;;;1.90;;
31652;SDS011;18261;53.648;9.910;2023-02-28T12:40:56;8.43;;;2.00;;
31652;SDS011;18261;53.648;9.910;2023-02-28T12:43:25;6.15;;;2.00;;
31652;SDS011;18261;53.648;9.910;2023-02-28T12:45:54;5.70;;;1.90;;
31652;SDS011;18261;53.648;9.910;2023-02-28T12:48:42;3.30;;;1.88;;
31652;SDS011;18261;53.648;9.910;2023-02-28T12:51:08;5.30;;;2.20;;
31652;SDS011;18261;53.648;9.910;2023-02-28T12:58:41;4.88;;;2.10;;
31652;SDS011;18261;53.648;9.910;2023-02-28T13:08:57;7.03;;;2.38;;
31652;SDS011;18261;53.648;9.910;2023-02-28T13:13:58;3.13;;;1.60;;
31652;SDS011;18261;53.648;9.910;2023-02-28T13:16:24;7.93;;;2.38;;
31652;SDS011;18261;53.648;9.910;2023-02-28T13:18:50;4.63;;;2.05;;
31652;SDS011;18261;53.648;9.910;2023-02-28T13:21:24;5.20;;;2.08;;
31652;SDS011;18261;53.648;9.910;2023-02-28T13:26:22;5.63;;;2.08;;
31652;SDS011;18261;53.648;9.910;2023-02-28T13:31:14;5.63;;;1.95;;
31652;SDS011;18261;53.648;9.910;2023-02-28T13:34:27;6.38;;;2.17;;
31652;SDS011;18261;53.648;9.910;2023-02-28T13:36:29;8.05;;;1.90;;
31652;SDS011;18261;53.648;9.910;2023-02-28T13:38:57;9.10;;;2.45;;
31652;SDS011;18261;53.648;9.910;2023-02-28T13:46:24;5.82;;;2.05;;
31652;SDS011;18261;53.648;9.910;2023-02-28T13:48:50;5.32;;;2.15;;
31652;SDS011;18261;53.648;9.910;2023-02-28T13:54:06;6.10;;;2.05;;
31652;SDS011;18261;53.648;9.910;2023-02-28T13:56:45;5.20;;;2.10;;
31652;SDS011;18261;53.648;9.910;2023-02-28T14:05:19;7.13;;;2.25;;
31652;SDS011;18261;53.648;9.910;2023-02-28T14:07:54;15.33;;;3.00;;
31652;SDS011;18261;53.648;9.910;2023-02-28T14:10:26;7.35;;;2.60;;
31652;SDS011;18261;53.648;9.910;2023-02-28T14:12:57;11.07;;;5.75;;
31652;SDS011;18261;53.648;9.910;2023-02-28T14:18:02;5.80;;;2.90;;
31652;SDS011;18261;53.648;9.910;2023-02-28T14:20:31;8.35;;;2.45;;
31652;SDS011;18261;53.648;9.910;2023-02-28T14:23:06;7.35;;;2.08;;
31652;SDS011;18261;53.648;9.910;2023-02-28T14:25:40;3.22;;;1.85;;
31652;SDS011;18261;53.648;9.910;2023-02-28T14:33:13;5.32;;;2.13;;
31652;SDS011;18261;53.648;9.910;2023-02-28T14:38:45;18.75;;;11.00;;
31652;SDS011;18261;53.648;9.910;2023-02-28T14:41:16;7.63;;;4.43;;
31652;SDS011;18261;53.648;9.910;2023-02-28T14:43:51;10.45;;;5.43;;
31652;SDS011;18261;53.648;9.910;2023-02-28T14:46:17;7.45;;;3.72;;
31652;SDS011;18261;53.648;9.910;2023-02-28T14:48:45;8.35;;;2.88;;
31652;SDS011;18261;53.648;9.910;2023-02-28T14:51:11;5.55;;;2.90;;
31652;SDS011;18261;53.648;9.910;2023-02-28T14:53:37;7.88;;;3.28;;
31652;SDS011;18261;53.648;9.910;2023-02-28T14:56:03;6.57;;;2.60;;
31652;SDS011;18261;53.648;9.910;2023-02-28T14:58:31;7.43;;;3.85;;
31652;SDS011;18261;53.648;9.910;2023-02-28T15:00:59;7.18;;;2.65;;
31652;SDS011;18261;53.648;9.910;2023-02-28T15:03:35;7.95;;;3.03;;
31652;SDS011;18261;53.648;9.910;2023-02-28T15:06:02;8.38;;;3.47;;
31652;SDS011;18261;53.648;9.910;2023-02-28T15:08:28;8.07;;;4.38;;
31652;SDS011;18261;53.648;9.910;2023-02-28T15:11:00;7.05;;;2.50;;
31652;SDS011;18261;53.648;9.910;2023-02-28T15:13:47;5.85;;;2.13;;
31652;SDS011;18261;53.648;9.910;2023-02-28T15:16:17;4.47;;;2.65;;
31652;SDS011;18261;53.648;9.910;2023-02-28T15:18:50;7.07;;;3.47;;
31652;SDS011;18261;53.648;9.910;2023-02-28T15:21:18;6.47;;;2.50;;
31652;SDS011;18261;53.648;9.910;2023-02-28T15:23:46;7.97;;;2.60;;
31652;SDS011;18261;53.648;9.910;2023-02-28T15:26:16;4.95;;;2.40;;
31652;SDS011;18261;53.648;9.910;2023-02-28T15:28:43;8.65;;;3.95;;
31652;SDS011;18261;53.648;9.910;2023-02-28T15:31:19;6.00;;;2.63;;
31652;SDS011;18261;53.648;9.910;2023-02-28T15:33:52;8.73;;;3.60;;
31652;SDS011;18261;53.648;9.910;2023-02-28T15:36:19;9.30;;;2.40;;
31652;SDS011;18261;53.648;9.910;2023-02-28T15:38:50;6.60;;;2.22;;
31652;SDS011;18261;53.648;9.910;2023-02-28T15:41:26;3.97;;;2.28;;
31652;SDS011;18261;53.648;9.910;2023-02-28T15:46:37;8.18;;;2.08;;
31652;SDS011;18261;53.648;9.910;2023-02-28T15:49:03;6.60;;;2.67;;
31652;SDS011;18261;53.648;9.910;2023-02-28T15:51:33;7.03;;;1.85;;
31652;SDS011;18261;53.648;9.910;2023-02-28T15:54:02;8.90;;;3.60;;
31652;SDS011;18261;53.648;9.910;2023-02-28T15:56:31;7.03;;;2.92;;
31652;SDS011;18261;53.648;9.910;2023-02-28T15:58:58;9.25;;;2.30;;
31652;SDS011;18261;53.648;9.910;2023-02-28T16:01:26;5.78;;;2.00;;
31652;SDS011;18261;53.648;9.910;2023-02-28T16:04:06;7.18;;;2.88;;
31652;SDS011;18261;53.648;9.910;2023-02-28T16:09:05;4.82;;;2.20;;
31652;SDS011;18261;53.648;9.910;2023-02-28T16:11:32;4.60;;;2.17;;
31652;SDS011;18261;53.648;9.910;2023-02-28T16:13:59;6.85;;;1.85;;
31652;SDS011;18261;53.648;9.910;2023-02-28T16:16:25;11.38;;;2.35;;
31652;SDS011;18261;53.648;9.910;2023-02-28T16:18:51;6.65;;;2.28;;
31652;SDS011;18261;53.648;9.910;2023-02-28T16:21:18;8.40;;;2.47;;
31652;SDS011;18261;53.648;9.910;2023-02-28T16:23:44;4.50;;;2.17;;
31652;SDS011;18261;53.648;9.910;2023-02-28T16:26:14;6.63;;;2.67;;
31652;SDS011;18261;53.648;9.910;2023-02-28T16:28:42;6.35;;;2.78;;
31652;SDS011;18261;53.648;9.910;2023-02-28T16:31:09;5.20;;;2.33;;
31652;SDS011;18261;53.648;9.910;2023-02-28T16:33:41;12.90;;;6.55;;
31652;SDS011;18261;53.648;9.910;2023-02-28T16:36:09;37.00;;;20.58;;
31652;SDS011;18261;53.648;9.910;2023-02-28T16:38:35;44.92;;;24.73;;
31652;SDS011;18261;53.648;9.910;2023-02-28T16:41:01;19.67;;;11.25;;
31652;SDS011;18261;53.648;9.910;2023-02-28T16:43:27;13.52;;;7.22;;
31652;SDS011;18261;53.648;9.910;2023-02-28T16:45:56;8.93;;;4.57;;
31652;SDS011;18261;53.648;9.910;2023-02-28T16:48:23;8.32;;;4.20;;
31652;SDS011;18261;53.648;9.910;2023-02-28T16:50:50;12.65;;;4.07;;
31652;SDS011;18261;53.648;9.910;2023-02-28T16:53:16;16.83;;;6.43;;
31652;SDS011;18261;53.648;9.910;2023-02-28T16:55:42;14.55;;;6.38;;